Time;durP1;ratioP1;P1;durP2;ratioP2;P2;SDS_P1;SDS_P2;PMS_P1;PMS_P2;Temp;Humidity;BMP_temperature;BMP_pressure;BME280_temperature;BME280_humidity;BME280_pressure;Samples;Min_cycle;Max_cycle;Signal;HPM_P1;HPM_P2
2023/09/28 00:02:46;;;;;;;10.82;4.97;;;;;;;18.30;100.00;101046.13;4977977;28;20085;-91
2023/09/28 00:05:15;;;;;;;6.30;4.32;;;;;;;18.27;100.00;101049.28;4962616;28;20054;-91
2023/09/28 00:07:44;;;;;;;9.73;5.38;;;;;;;18.19;100.00;101047.31;4942710;28;20042;-91
2023/09/28 00:10:11;;;;;;;11.20;5.10;;;;;;;18.15;100.00;101043.13;4961888;28;20022;-91
2023/09/28 00:12:48;;;;;;;13.32;5.40;;;;;;;18.15;100.00;101030.16;4952082;28;20027;-92
2023/09/28 00:15:14;;;;;;;9.63;5.45;;;;;;;18.11;100.00;101025.13;4940408;28;20564;-91
2023/09/28 00:17:41;;;;;;;7.43;4.65;;;;;;;18.14;100.00;101033.09;4945439;28;20449;-92
2023/09/28 00:20:18;;;;;;;8.38;5.47;;;;;;;18.13;100.00;101023.03;4939548;29;20070;-92
2023/09/28 00:22:49;;;;;;;8.73;4.50;;;;;;;18.18;100.00;101031.72;4960300;28;20078;-92
2023/09/28 00:25:16;;;;;;;7.80;5.07;;;;;;;18.22;100.00;101037.78;4942049;28;20485;-92
2023/09/28 00:27:46;;;;;;;8.98;5.38;;;;;;;18.09;100.00;101055.75;4947501;28;20035;-91
2023/09/28 00:30:18;;;;;;;10.15;5.50;;;;;;;18.00;100.00;101052.09;4959129;28;20318;-91
2023/09/28 00:32:44;;;;;;;8.70;5.53;;;;;;;18.05;100.00;101050.72;4957862;28;20031;-91
2023/09/28 00:35:14;;;;;;;10.18;5.60;;;;;;;18.03;100.00;101047.25;4925449;28;20062;-92
2023/09/28 00:37:40;;;;;;;8.65;5.47;;;;;;;17.96;100.00;101047.03;4960807;28;20109;-92
2023/09/28 00:40:28;;;;;;;10.55;5.20;;;;;;;17.92;100.00;101062.25;4948996;29;20055;-91
2023/09/28 00:42:52;;;;;;;12.40;5.47;;;;;;;17.91;100.00;101063.31;4933222;28;20412;-93
2023/09/28 00:45:21;;;;;;;12.63;6.60;;;;;;;17.87;100.00;101067.38;4926766;28;20117;-92
2023/09/28 00:47:50;;;;;;;11.13;5.40;;;;;;;17.92;100.00;101078.88;4943084;28;20082;-92
2023/09/28 00:50:20;;;;;;;9.85;5.90;;;;;;;17.89;100.00;101081.97;4958136;28;20097;-92
2023/09/28 00:52:51;;;;;;;9.45;5.30;;;;;;;17.97;100.00;101082.00;4929392;29;20055;-91
2023/09/28 00:55:19;;;;;;;8.30;5.07;;;;;;;17.91;100.00;101082.69;4956954;28;20038;-91
2023/09/28 00:57:46;;;;;;;10.15;4.88;;;;;;;17.86;100.00;101079.50;4945093;28;20035;-91
2023/09/28 01:00:26;;;;;;;12.23;5.20;;;;;;;17.86;100.00;101087.81;4956873;28;20062;-91
2023/09/28 01:02:53;;;;;;;7.60;5.00;;;;;;;17.74;100.00;101090.88;4951855;28;20034;-92
2023/09/28 01:05:25;;;;;;;11.70;5.45;;;;;;;17.74;100.00;101095.50;4958302;28;20035;-92
2023/09/28 01:07:52;;;;;;;9.45;4.93;;;;;;;17.72;100.00;101092.03;4958661;28;20041;-91
2023/09/28 01:10:24;;;;;;;7.05;4.78;;;;;;;17.68;100.00;101094.28;4950506;28;20034;-91
2023/09/28 01:12:50;;;;;;;7.15;4.72;;;;;;;17.64;100.00;101079.91;4959067;28;20022;-92
2023/09/28 01:15:16;;;;;;;9.00;4.75;;;;;;;17.55;100.00;101091.06;4949896;28;20097;-91
2023/09/28 01:17:43;;;;;;;8.20;4.78;;;;;;;17.51;100.00;101092.41;4919804;29;20027;-93
2023/09/28 01:20:17;;;;;;;13.90;5.20;;;;;;;17.31;100.00;101087.06;4955573;28;20478;-91
2023/09/28 01:22:42;;;;;;;8.18;5.22;;;;;;;17.43;100.00;101094.09;4957785;28;20039;-91
2023/09/28 01:25:08;;;;;;;9.85;5.43;;;;;;;17.37;100.00;101080.88;4924621;28;20103;-91
2023/09/28 01:27:35;;;;;;;11.63;5.38;;;;;;;17.41;100.00;101087.84;4942296;28;20038;-91
2023/09/28 01:30:03;;;;;;;12.00;4.50;;;;;;;17.34;100.00;101081.19;4942347;28;20027;-91
2023/09/28 01:32:29;;;;;;;11.00;5.20;;;;;;;17.30;100.00;101078.91;4923709;28;20139;-91
2023/09/28 01:34:55;;;;;;;11.27;5.80;;;;;;;17.33;100.00;101087.78;4954634;28;20011;-91
2023/09/28 01:37:29;;;;;;;11.65;5.25;;;;;;;17.34;100.00;101086.75;4933511;29;20116;-92
2023/09/28 01:39:55;;;;;;;9.20;5.00;;;;;;;17.29;100.00;101072.50;4978662;28;20117;-92
2023/09/28 01:42:20;;;;;;;7.15;5.35;;;;;;;17.24;100.00;101059.16;4940739;28;20482;-78
2023/09/28 01:44:46;;;;;;;7.47;4.90;;;;;;;17.21;100.00;101072.44;4970309;28;20035;-78
2023/09/28 01:47:11;;;;;;;9.82;5.40;;;;;;;17.18;100.00;101073.63;4937557;28;20035;-78
2023/09/28 01:49:37;;;;;;;9.80;5.28;;;;;;;17.16;100.00;101092.28;4938248;28;20073;-78
2023/09/28 01:52:03;;;;;;;8.50;5.22;;;;;;;17.17;100.00;101090.41;4941640;28;20136;-78
2023/09/28 01:54:28;;;;;;;10.38;5.32;;;;;;;17.18;100.00;101097.66;4933230;29;20046;-78
2023/09/28 01:56:54;;;;;;;8.77;5.82;;;;;;;17.25;100.00;101094.13;4937981;28;20083;-78
2023/09/28 01:59:19;;;;;;;13.88;6.18;;;;;;;17.20;100.00;101092.84;4932518;29;20031;-78
2023/09/28 02:01:44;;;;;;;10.35;6.13;;;;;;;17.22;100.00;101094.44;4938320;29;20413;-78
2023/09/28 02:04:11;;;;;;;9.13;5.75;;;;;;;17.21;100.00;101077.97;4937105;29;20051;-78
2023/09/28 02:06:37;;;;;;;12.88;6.40;;;;;;;17.14;100.00;101088.81;4942616;29;20106;-78
2023/09/28 02:09:04;;;;;;;10.73;5.90;;;;;;;17.16;100.00;101088.66;4921639;29;20414;-78
2023/09/28 02:11:29;;;;;;;7.13;5.28;;;;;;;17.16;100.00;101096.97;4939580;28;20033;-78
2023/09/28 02:13:55;;;;;;;12.10;5.80;;;;;;;17.23;100.00;101101.72;4940551;29;20028;-78
2023/09/28 02:16:20;;;;;;;15.15;6.30;;;;;;;17.22;100.00;101099.97;4937657;29;20059;-79
2023/09/28 02:18:46;;;;;;;10.27;5.65;;;;;;;17.18;100.00;101097.66;4927444;29;20609;-78
2023/09/28 02:21:14;;;;;;;9.82;5.63;;;;;;;17.14;100.00;101096.25;4920963;29;20502;-78
2023/09/28 02:23:43;;;;;;;11.15;6.22;;;;;;;17.02;100.00;101093.72;4935273;29;20020;-77
2023/09/28 02:26:08;;;;;;;13.52;5.85;;;;;;;17.08;100.00;101090.31;4918099;29;20587;-79
2023/09/28 02:28:34;;;;;;;16.05;6.18;;;;;;;17.06;100.00;101103.44;4917782;29;20119;-78
2023/09/28 02:31:08;;;;;;;6.93;5.30;;;;;;;17.11;100.00;101108.50;4941262;29;20544;-79
2023/09/28 02:33:34;;;;;;;12.23;5.25;;;;;;;17.07;100.00;101116.25;4940261;29;20035;-78
2023/09/28 02:35:59;;;;;;;10.85;6.32;;;;;;;17.02;100.00;101110.31;4930318;29;20023;-78
2023/09/28 02:38:25;;;;;;;8.93;5.78;;;;;;;17.06;100.00;101117.28;4922319;29;20031;-78
2023/09/28 02:40:50;;;;;;;9.57;6.03;;;;;;;17.01;100.00;101113.25;4940640;29;20040;-78
2023/09/28 02:43:16;;;;;;;14.02;5.85;;;;;;;16.98;100.00;101116.31;4939757;29;20036;-78
2023/09/28 02:45:42;;;;;;;7.10;5.10;;;;;;;16.90;100.00;101128.16;4944689;29;20042;-78
2023/09/28 02:48:08;;;;;;;14.20;5.95;;;;;;;16.92;100.00;101122.47;4937782;29;20028;-78
2023/09/28 02:50:35;;;;;;;8.68;5.35;;;;;;;16.91;100.00;101127.16;4924118;29;20379;-78
2023/09/28 02:53:00;;;;;;;9.98;6.43;;;;;;;16.91;100.00;101132.69;4948815;29;20138;-78
2023/09/28 02:55:26;;;;;;;7.07;5.20;;;;;;;16.93;100.00;101119.56;4936829;28;20146;-78
2023/09/28 02:57:51;;;;;;;11.52;5.65;;;;;;;16.88;100.00;101127.47;4935794;29;20039;-78
2023/09/28 03:00:25;;;;;;;8.07;5.05;;;;;;;16.89;100.00;101129.22;4951762;28;20037;-78
2023/09/28 03:02:51;;;;;;;8.60;5.93;;;;;;;16.96;100.00;101126.69;4953646;28;20038;-79
2023/09/28 03:05:20;;;;;;;8.93;5.35;;;;;;;16.85;100.00;101128.63;4952506;28;20023;-78
2023/09/28 03:07:46;;;;;;;8.73;5.55;;;;;;;16.82;100.00;101133.56;4936966;28;20524;-78
2023/09/28 03:10:13;;;;;;;8.45;5.72;;;;;;;16.83;100.00;101138.09;4949827;28;20031;-78
2023/09/28 03:12:39;;;;;;;9.32;5.53;;;;;;;16.80;100.00;101136.50;4949590;29;20035;-78
2023/09/28 03:15:07;;;;;;;11.02;5.13;;;;;;;16.78;100.00;101129.41;4949131;28;20027;-78
2023/09/28 03:17:34;;;;;;;12.85;5.18;;;;;;;16.83;100.00;101133.41;4951471;29;20086;-79
2023/09/28 03:20:00;;;;;;;10.45;4.97;;;;;;;16.78;100.00;101133.03;4950686;28;20035;-78
2023/09/28 03:22:25;;;;;;;8.27;5.30;;;;;;;16.78;100.00;101134.94;4936032;28;20033;-78
2023/09/28 03:24:52;;;;;;;9.68;5.10;;;;;;;16.75;100.00;101132.47;4935430;29;20126;-79
2023/09/28 03:27:17;;;;;;;13.15;5.63;;;;;;;16.80;100.00;101146.69;4952814;28;20024;-78
2023/09/28 03:29:43;;;;;;;9.20;4.68;;;;;;;16.77;100.00;101149.78;4951577;28;20046;-78
2023/09/28 03:32:09;;;;;;;10.75;5.60;;;;;;;16.69;100.00;101150.53;4949803;28;20051;-78
2023/09/28 03:34:36;;;;;;;11.68;5.28;;;;;;;16.66;100.00;101148.97;4933771;28;20040;-78
2023/09/28 03:37:03;;;;;;;7.85;5.55;;;;;;;16.62;100.00;101152.19;4951828;28;20497;-78
2023/09/28 03:39:29;;;;;;;14.48;5.53;;;;;;;16.60;100.00;101157.88;4935078;29;20035;-78
2023/09/28 03:41:55;;;;;;;7.32;5.13;;;;;;;16.52;100.00;101157.75;4950366;28;20102;-78
2023/09/28 03:44:21;;;;;;;11.50;5.57;;;;;;;16.52;100.00;101161.38;4952856;28;20035;-78
2023/09/28 03:46:46;;;;;;;11.52;5.78;;;;;;;16.51;100.00;101167.06;4938022;28;20114;-79
2023/09/28 03:49:13;;;;;;;10.65;5.55;;;;;;;16.43;100.00;101172.50;4933666;28;20039;-78
2023/09/28 03:51:39;;;;;;;11.60;5.43;;;;;;;16.43;100.00;101176.16;4953000;28;20549;-79
2023/09/28 03:54:05;;;;;;;16.17;5.22;;;;;;;16.44;100.00;101172.34;4970321;28;20122;-78
2023/09/28 03:56:31;;;;;;;13.63;5.75;;;;;;;16.34;100.00;101168.75;4940414;28;20019;-78
2023/09/28 03:58:56;;;;;;;11.60;5.53;;;;;;;16.33;100.00;101172.53;4937785;28;20399;-78
2023/09/28 04:01:23;;;;;;;8.70;5.97;;;;;;;16.39;100.00;101182.97;4939774;28;20465;-92
2023/09/28 04:03:49;;;;;;;13.20;5.80;;;;;;;16.38;100.00;101185.88;4926616;28;20038;-92
2023/09/28 04:06:16;;;;;;;12.48;6.30;;;;;;;16.41;100.00;101193.88;4921007;29;20035;-92
2023/09/28 04:08:42;;;;;;;11.57;5.63;;;;;;;16.41;100.00;101186.47;4923588;28;20043;-92
2023/09/28 04:11:08;;;;;;;8.05;5.72;;;;;;;16.40;100.00;101200.41;4919365;29;20035;-91
2023/09/28 04:13:33;;;;;;;8.32;5.78;;;;;;;16.44;100.00;101202.75;4925698;28;20485;-91
2023/09/28 04:15:59;;;;;;;14.70;5.97;;;;;;;16.46;100.00;101199.81;4925516;28;20227;-91
2023/09/28 04:18:24;;;;;;;10.73;5.60;;;;;;;16.43;100.00;101195.50;4943148;28;20042;-91
2023/09/28 04:20:50;;;;;;;11.10;5.07;;;;;;;16.49;100.00;101213.34;4943123;28;20457;-90
2023/09/28 04:23:16;;;;;;;15.32;6.18;;;;;;;16.47;100.00;101215.41;4942088;28;20541;-91
2023/09/28 04:25:42;;;;;;;8.73;5.53;;;;;;;16.45;100.00;101212.78;4941133;28;20061;-93
2023/09/28 04:28:08;;;;;;;8.07;5.10;;;;;;;16.42;100.00;101210.31;4942485;28;20081;-95
2023/09/28 04:30:36;;;;;;;7.30;5.00;;;;;;;16.32;100.00;101212.25;4946153;28;20030;-91
2023/09/28 04:33:03;;;;;;;10.68;5.43;;;;;;;16.27;100.00;101209.94;4928297;28;20038;-93
2023/09/28 04:35:30;;;;;;;9.10;5.97;;;;;;;16.24;100.00;101215.75;4942860;28;20396;-95
2023/09/28 04:37:56;;;;;;;12.02;5.55;;;;;;;16.22;100.00;101212.28;4947719;28;20035;-95
2023/09/28 04:40:25;;;;;;;9.40;5.88;;;;;;;16.16;100.00;101204.59;4943115;28;20050;-94
2023/09/28 04:42:50;;;;;;;10.77;6.80;;;;;;;16.11;100.00;101201.41;4961375;28;20026;-94
2023/09/28 04:45:16;;;;;;;12.35;6.20;;;;;;;16.15;100.00;101202.81;4947751;28;20038;-92
2023/09/28 04:47:42;;;;;;;9.68;6.07;;;;;;;16.12;100.00;101198.50;4962035;28;20055;-91
2023/09/28 04:50:08;;;;;;;10.88;6.32;;;;;;;16.05;100.00;101202.00;4963238;28;20018;-93
2023/09/28 04:52:34;;;;;;;13.38;5.88;;;;;;;16.01;100.00;101204.19;4937539;28;20058;-89
2023/09/28 04:54:59;;;;;;;11.80;6.50;;;;;;;15.96;100.00;101204.63;4956272;28;20031;-89
2023/09/28 04:57:26;;;;;;;9.50;6.30;;;;;;;15.96;100.00;101209.28;4956054;28;20058;-88
2023/09/28 04:59:51;;;;;;;20.17;7.15;;;;;;;15.88;100.00;101211.91;4949730;28;20629;-89
2023/09/28 05:02:17;;;;;;;10.55;6.30;;;;;;;15.84;100.00;101222.38;4940599;28;20038;-88
2023/09/28 05:04:44;;;;;;;11.55;6.82;;;;;;;15.80;100.00;101221.78;4925869;28;20680;-88
2023/09/28 05:07:09;;;;;;;15.43;6.88;;;;;;;15.73;100.00;101223.38;4924254;28;20119;-88
2023/09/28 05:09:38;;;;;;;11.30;6.88;;;;;;;15.78;100.00;101214.69;4969598;28;20050;-88
2023/09/28 05:12:04;;;;;;;18.20;7.03;;;;;;;15.75;100.00;101221.31;4956064;28;21083;-78
2023/09/28 05:14:29;;;;;;;10.65;7.28;;;;;;;15.74;100.00;101229.75;4967203;28;20026;-78
2023/09/28 05:16:55;;;;;;;16.63;7.20;;;;;;;15.79;100.00;101239.41;4939644;28;20039;-78
2023/09/28 05:19:22;;;;;;;16.17;7.03;;;;;;;15.83;100.00;101239.09;4953104;28;20077;-78
2023/09/28 05:21:48;;;;;;;12.75;7.40;;;;;;;15.80;100.00;101245.78;4970658;28;20105;-78
2023/09/28 05:24:13;;;;;;;17.63;7.72;;;;;;;15.88;100.00;101253.34;4968409;28;20126;-78
2023/09/28 05:26:39;;;;;;;15.68;7.57;;;;;;;15.89;100.00;101253.19;4935152;28;20062;-78
2023/09/28 05:29:04;;;;;;;15.30;7.07;;;;;;;15.89;100.00;101257.81;4953879;28;20022;-78
2023/09/28 05:31:30;;;;;;;15.82;8.20;;;;;;;15.82;100.00;101263.06;4934564;28;20046;-78
2023/09/28 05:33:55;;;;;;;14.63;7.63;;;;;;;15.81;100.00;101255.81;4957881;28;20037;-78
2023/09/28 05:36:21;;;;;;;10.10;7.20;;;;;;;15.83;100.00;101261.19;4931984;28;20476;-78
2023/09/28 05:38:46;;;;;;;15.48;6.93;;;;;;;15.84;100.00;101260.16;4953190;28;20038;-78
2023/09/28 05:41:12;;;;;;;14.93;7.10;;;;;;;15.82;100.00;101271.34;4949751;28;20039;-78
2023/09/28 05:43:38;;;;;;;16.27;7.20;;;;;;;15.78;100.00;101273.53;4931340;28;20126;-78
2023/09/28 05:46:04;;;;;;;14.23;7.53;;;;;;;15.79;100.00;101275.28;4954916;28;20089;-78
2023/09/28 05:48:29;;;;;;;15.00;7.90;;;;;;;15.78;100.00;101279.06;4976145;28;20029;-78
2023/09/28 05:50:56;;;;;;;17.70;7.35;;;;;;;15.79;100.00;101285.47;4956900;28;20114;-77
2023/09/28 05:53:21;;;;;;;12.27;7.75;;;;;;;15.73;100.00;101286.88;4965167;28;20065;-78
2023/09/28 05:55:49;;;;;;;10.55;7.07;;;;;;;15.88;100.00;101287.34;4928710;28;20030;-78
2023/09/28 05:58:14;;;;;;;11.93;7.18;;;;;;;15.92;100.00;101293.44;4946061;28;20417;-78
2023/09/28 06:00:40;;;;;;;15.48;7.30;;;;;;;15.94;100.00;101299.72;4973262;28;20031;-78
2023/09/28 06:03:06;;;;;;;16.60;7.25;;;;;;;15.96;100.00;101303.19;4979255;28;20540;-78
2023/09/28 06:05:31;;;;;;;17.85;7.53;;;;;;;15.89;100.00;101290.97;4977059;28;20173;-78
2023/09/28 06:07:57;;;;;;;14.20;7.15;;;;;;;15.88;100.00;101300.28;4954132;28;20027;-78
2023/09/28 06:10:23;;;;;;;14.25;6.68;;;;;;;15.89;100.00;101313.06;4957231;28;20031;-78
2023/09/28 06:12:49;;;;;;;23.80;7.65;;;;;;;15.90;100.00;101310.16;4975521;28;20046;-79
2023/09/28 06:15:17;;;;;;;14.77;7.30;;;;;;;15.95;100.00;101318.91;4973458;28;20035;-79
2023/09/28 06:17:42;;;;;;;11.88;6.57;;;;;;;15.96;100.00;101328.03;4962938;28;20050;-78
2023/09/28 06:20:08;;;;;;;10.93;6.63;;;;;;;15.98;100.00;101324.09;4940100;28;20409;-78
2023/09/28 06:22:33;;;;;;;17.10;7.05;;;;;;;16.04;100.00;101324.56;4975136;28;20062;-78
2023/09/28 06:24:59;;;;;;;13.93;7.97;;;;;;;16.06;100.00;101312.34;4956921;28;20034;-78
2023/09/28 06:27:25;;;;;;;16.63;7.57;;;;;;;16.12;100.00;101319.19;4942352;28;20503;-77
2023/09/28 06:29:52;;;;;;;17.23;7.70;;;;;;;16.15;100.00;101316.09;4973236;28;20034;-77
2023/09/28 06:32:23;;;;;;;25.30;7.25;;;;;;;16.28;100.00;101319.47;4954312;28;20046;-78
2023/09/28 06:34:49;;;;;;;20.13;7.45;;;;;;;16.34;100.00;101323.50;4975011;28;20443;-77
2023/09/28 06:37:15;;;;;;;12.10;7.22;;;;;;;16.33;100.00;101332.81;4938268;28;20118;-78
2023/09/28 06:39:40;;;;;;;16.17;7.57;;;;;;;16.43;100.00;101336.44;4972179;28;20027;-77
2023/09/28 06:42:06;;;;;;;14.82;6.93;;;;;;;16.47;100.00;101339.78;4950795;28;20026;-77
2023/09/28 06:44:33;;;;;;;17.83;7.25;;;;;;;16.50;100.00;101342.25;4970229;28;20106;-77
2023/09/28 06:46:59;;;;;;;13.23;7.18;;;;;;;16.52;100.00;101342.97;4973001;28;20022;-77
2023/09/28 06:49:26;;;;;;;14.52;6.82;;;;;;;16.54;100.00;101352.88;4930041;28;20038;-77
2023/09/28 06:51:53;;;;;;;21.58;6.90;;;;;;;16.66;100.00;101353.56;4955690;28;20514;-77
2023/09/28 06:54:19;;;;;;;13.25;7.20;;;;;;;16.63;100.00;101348.34;4955564;28;20087;-76
2023/09/28 06:56:48;;;;;;;16.17;6.30;;;;;;;16.64;100.00;101354.72;4972329;28;20015;-77
2023/09/28 06:59:13;;;;;;;16.05;7.20;;;;;;;16.56;100.00;101354.59;4971069;28;20494;-77
2023/09/28 07:01:40;;;;;;;16.92;7.13;;;;;;;16.59;100.00;101352.41;4971788;28;20126;-77
2023/09/28 07:04:06;;;;;;;21.08;6.78;;;;;;;16.65;100.00;101360.13;4972160;28;20468;-78
2023/09/28 07:06:35;;;;;;;14.80;6.25;;;;;;;16.63;100.00;101359.41;4971409;28;20506;-77
2023/09/28 07:09:02;;;;;;;19.63;7.05;;;;;;;16.63;100.00;101375.13;4954297;28;20031;-77
2023/09/28 07:11:27;;;;;;;15.00;6.88;;;;;;;16.69;100.00;101385.56;4977265;28;20034;-77
2023/09/28 07:13:59;;;;;;;20.57;6.87;;;;;;;16.71;100.00;101372.50;4972853;28;20041;-77
2023/09/28 07:16:25;;;;;;;14.00;6.57;;;;;;;16.79;100.00;101378.16;4954734;28;20064;-77
2023/09/28 07:18:50;;;;;;;24.63;7.65;;;;;;;16.88;100.00;101382.78;4939542;28;20035;-77
2023/09/28 07:21:16;;;;;;;14.90;6.38;;;;;;;17.03;100.00;101387.84;4965968;28;20477;-77
2023/09/28 07:23:41;;;;;;;27.40;6.13;;;;;;;16.98;100.00;101391.06;4941050;28;20027;-77
2023/09/28 07:26:17;;;;;;;20.95;5.72;;;;;;;17.36;100.00;101386.41;4940242;28;20038;-77
2023/09/28 07:28:46;;;;;;;19.20;6.35;;;;;;;17.51;100.00;101384.00;4972964;28;20042;-77
2023/09/28 07:31:12;;;;;;;19.50;5.70;;;;;;;17.73;100.00;101377.16;4954333;28;20042;-77
2023/09/28 07:33:39;;;;;;;21.30;6.00;;;;;;;17.77;100.00;101369.41;4974154;28;20124;-77
2023/09/28 07:36:05;;;;;;;16.77;6.35;;;;;;;17.59;100.00;101381.34;4955987;28;20432;-77
2023/09/28 07:38:34;;;;;;;15.30;5.97;;;;;;;17.51;100.00;101372.03;4973929;28;20129;-77
2023/09/28 07:41:00;;;;;;;17.33;6.13;;;;;;;17.49;100.00;101363.03;4956469;28;20030;-77
2023/09/28 07:43:27;;;;;;;25.00;5.78;;;;;;;17.34;100.00;101362.69;4949397;28;20066;-78
2023/09/28 07:45:52;;;;;;;22.50;5.70;;;;;;;17.20;100.00;101376.00;4972634;28;20039;-77
2023/09/28 07:48:18;;;;;;;18.13;5.78;;;;;;;17.28;100.00;101369.69;4938931;28;20023;-77
2023/09/28 07:50:43;;;;;;;19.40;5.70;;;;;;;17.53;100.00;101386.59;4921227;28;20042;-77
2023/09/28 07:53:09;;;;;;;22.08;5.50;;;;;;;17.55;100.00;101392.88;4949560;29;20506;-77
2023/09/28 07:55:34;;;;;;;18.92;5.20;;;;;;;17.96;100.00;101401.69;4952227;28;20037;-77
2023/09/28 07:57:59;;;;;;;22.42;5.28;;;;;;;18.09;100.00;101404.94;4973329;28;20370;-78
2023/09/28 08:00:25;;;;;;;23.67;5.50;;;;;;;18.12;100.00;101409.31;4940005;28;20035;-78
2023/09/28 08:02:50;;;;;;;21.05;5.60;;;;;;;17.89;100.00;101415.31;4940410;28;20037;-78
2023/09/28 08:05:16;;;;;;;19.67;4.45;;;;;;;18.01;100.00;101415.94;4966793;28;20477;-78
2023/09/28 08:07:42;;;;;;;24.10;4.70;;;;;;;18.26;100.00;101417.06;4964391;28;20031;-77
2023/09/28 08:10:10;;;;;;;19.80;4.22;;;;;;;18.43;100.00;101423.66;4951057;28;20027;-78
2023/09/28 08:12:37;;;;;;;21.92;4.72;;;;;;;18.47;100.00;101426.97;4971352;28;20090;-78
2023/09/28 08:15:04;;;;;;;25.65;4.07;;;;;;;18.46;100.00;101428.00;4954514;28;21026;-78
2023/09/28 08:17:30;;;;;;;25.63;5.05;;;;;;;18.40;100.00;101429.53;4939173;28;20026;-78
2023/09/28 08:19:56;;;;;;;24.00;4.53;;;;;;;18.98;100.00;101433.66;4955505;28;20497;-77
2023/09/28 08:22:22;;;;;;;23.45;3.65;;;;;;;18.58;100.00;101429.50;4939062;28;20031;-78
2023/09/28 08:24:48;;;;;;;20.65;3.72;;;;;;;18.97;100.00;101426.38;4966305;28;20717;-77
2023/09/28 08:27:14;;;;;;;31.58;4.20;;;;;;;19.29;100.00;101430.38;4925326;29;20035;-78
2023/09/28 08:29:39;;;;;;;25.52;3.85;;;;;;;19.50;100.00;101434.69;4972031;28;20030;-78
2023/09/28 08:32:05;;;;;;;27.52;3.58;;;;;;;19.86;100.00;101434.50;4939326;28;20069;-77
2023/09/28 08:34:33;;;;;;;25.50;3.72;;;;;;;19.46;100.00;101435.00;4973164;28;20030;-78
2023/09/28 08:37:01;;;;;;;35.20;4.32;;;;;;;19.62;100.00;101436.13;4939374;28;20030;-77
2023/09/28 08:39:27;;;;;;;31.30;4.43;;;;;;;19.64;100.00;101434.91;4946651;28;20023;-78
2023/09/28 08:42:00;;;;;;;27.85;3.58;;;;;;;20.01;100.00;101432.81;4953768;28;20509;-77
2023/09/28 08:44:29;;;;;;;25.88;3.58;;;;;;;20.00;100.00;101447.75;4971907;28;20035;-77
2023/09/28 08:46:58;;;;;;;28.30;3.45;;;;;;;19.40;100.00;101449.56;4952760;28;20023;-77
2023/09/28 08:49:27;;;;;;;34.15;3.17;;;;;;;19.48;100.00;101443.19;4952816;28;20392;-78
2023/09/28 08:51:56;;;;;;;29.17;3.58;;;;;;;19.50;100.00;101455.00;4964858;28;20034;-78
2023/09/28 08:54:25;;;;;;;27.75;3.25;;;;;;;19.60;100.00;101461.28;4965067;28;20030;-78
2023/09/28 08:56:52;;;;;;;23.83;3.90;;;;;;;19.42;100.00;101457.72;4955153;28;20023;-77
2023/09/28 08:59:19;;;;;;;30.10;3.10;;;;;;;19.67;100.00;101468.97;4955121;28;20031;-78
2023/09/28 09:01:46;;;;;;;34.45;3.55;;;;;;;19.87;100.00;101478.78;4971998;28;20108;-78
2023/09/28 09:04:12;;;;;;;34.58;4.05;;;;;;;19.61;100.00;101468.59;4971198;28;20484;-77
2023/09/28 09:06:38;;;;;;;30.55;3.63;;;;;;;19.38;100.00;101464.63;4954326;28;20046;-77
2023/09/28 09:09:06;;;;;;;26.50;3.80;;;;;;;20.29;100.00;101482.59;4952315;28;20035;-78
2023/09/28 09:11:33;;;;;;;30.65;3.45;;;;;;;20.27;100.00;101471.63;4972306;28;20038;-78
2023/09/28 09:14:00;;;;;;;34.03;4.18;;;;;;;20.41;100.00;101467.31;4970866;28;20022;-78
2023/09/28 09:16:29;;;;;;;33.92;3.13;;;;;;;20.23;100.00;101461.88;4972415;28;20047;-77
2023/09/28 09:18:56;;;;;;;26.92;4.10;;;;;;;19.88;100.00;101458.31;4962741;28;20043;-77
2023/09/28 09:21:22;;;;;;;36.30;4.20;;;;;;;19.68;100.00;101466.00;4971333;28;20058;-78
2023/09/28 09:24:04;;;;;;;21.67;3.20;;;;;;;20.23;100.00;101473.00;4973917;28;20035;-78
2023/09/28 09:26:40;;;;;;;23.42;3.13;;;;;;;20.46;100.00;101472.38;4957967;28;20043;-78
2023/09/28 09:29:10;;;;;;;27.55;3.85;;;;;;;20.44;100.00;101466.09;4958317;28;20065;-78
2023/09/28 09:31:38;;;;;;;27.30;3.60;;;;;;;20.24;100.00;101466.41;4924444;28;20019;-78
2023/09/28 09:34:07;;;;;;;32.22;3.40;;;;;;;20.68;100.00;101473.66;4975900;28;20396;-78
2023/09/28 09:36:32;;;;;;;26.27;3.63;;;;;;;20.85;100.00;101477.31;4973518;28;20082;-78
2023/09/28 09:38:58;;;;;;;28.13;3.53;;;;;;;20.84;100.00;101479.22;4958450;28;20118;-78
2023/09/28 09:41:24;;;;;;;26.27;3.53;;;;;;;21.25;100.00;101481.09;4972925;28;20062;-78
2023/09/28 09:43:51;;;;;;;28.23;4.07;;;;;;;20.88;100.00;101485.31;4950556;29;20063;-78
2023/09/28 09:46:17;;;;;;;34.55;3.95;;;;;;;21.05;100.00;101489.84;4954506;28;20094;-78
2023/09/28 09:48:44;;;;;;;32.33;3.83;;;;;;;20.93;100.00;101494.00;4974595;28;20035;-78
2023/09/28 09:51:12;;;;;;;27.83;3.85;;;;;;;21.20;100.00;101492.78;4939817;29;20051;-78
2023/09/28 09:53:40;;;;;;;26.48;3.30;;;;;;;20.93;100.00;101488.44;4970848;28;20098;-78
2023/09/28 09:56:06;;;;;;;24.08;3.22;;;;;;;21.15;100.00;101478.50;4972309;28;20439;-78
2023/09/28 09:58:38;;;;;;;26.90;3.80;;;;;;;21.35;100.00;101480.91;4969007;28;20110;-78
2023/09/28 10:01:10;;;;;;;28.45;3.75;;;;;;;21.36;100.00;101479.88;4974921;28;20493;-78
2023/09/28 10:03:38;;;;;;;30.13;2.92;;;;;;;21.25;100.00;101487.56;4972588;28;20034;-78
2023/09/28 10:06:04;;;;;;;21.65;2.95;;;;;;;21.27;100.00;101488.22;4967488;28;20532;-78
2023/09/28 10:08:32;;;;;;;24.88;3.78;;;;;;;20.96;100.00;101484.44;4940634;28;20058;-78
2023/09/28 10:11:00;;;;;;;27.13;3.80;;;;;;;21.42;100.00;101491.16;4975247;28;20077;-78
2023/09/28 10:13:31;;;;;;;28.15;3.40;;;;;;;21.43;100.00;101500.38;4957738;28;20027;-78
2023/09/28 10:16:01;;;;;;;28.38;3.47;;;;;;;21.15;100.00;101489.63;4974987;28;20053;-78
2023/09/28 10:18:29;;;;;;;26.73;3.25;;;;;;;21.03;100.00;101482.69;4970033;28;20089;-78
2023/09/28 10:20:56;;;;;;;31.67;3.65;;;;;;;21.04;100.00;101484.44;4974527;28;20031;-78
2023/09/28 10:23:26;;;;;;;23.63;3.22;;;;;;;20.93;100.00;101485.66;4954280;28;20023;-78
2023/09/28 10:25:59;;;;;;;33.95;4.47;;;;;;;21.28;100.00;101467.69;4953475;28;20397;-78
2023/09/28 10:28:25;;;;;;;24.83;3.45;;;;;;;20.61;100.00;101464.22;4968380;28;20068;-78
2023/09/28 10:31:09;;;;;;;25.58;3.70;;;;;;;20.73;100.00;101468.44;4966829;28;20034;-78
2023/09/28 10:33:37;;;;;;;21.45;2.72;;;;;;;21.08;100.00;101456.03;4968910;28;20077;-78
2023/09/28 10:36:14;;;;;;;30.88;4.15;;;;;;;21.19;100.00;101454.81;4953639;28;20070;-78
2023/09/28 10:38:41;;;;;;;30.00;3.95;;;;;;;21.61;100.00;101455.59;4947836;28;20118;-78
2023/09/28 10:41:07;;;;;;;27.85;3.72;;;;;;;21.84;100.00;101458.47;4967538;28;20023;-78
2023/09/28 10:43:43;;;;;;;27.80;3.67;;;;;;;21.83;100.00;101457.63;4970470;28;20038;-78
2023/09/28 10:46:09;;;;;;;23.25;4.05;;;;;;;21.91;100.00;101464.22;4962691;28;20039;-78
2023/09/28 10:48:39;;;;;;;31.88;3.50;;;;;;;22.12;100.00;101460.78;4953676;28;20103;-78
2023/09/28 10:51:12;;;;;;;25.02;3.22;;;;;;;21.80;100.00;101457.13;4967954;28;20077;-78
2023/09/28 10:53:37;;;;;;;;;;;;;;;21.78;100.00;101462.00;4954753;28;20056;-78
2023/09/28 10:56:05;;;;;;;19.97;3.43;;;;;;;21.58;100.00;101469.91;4951881;28;20303;-79
2023/09/28 10:58:33;;;;;;;22.58;3.03;;;;;;;22.15;100.00;101466.88;4950479;28;20031;-78
2023/09/28 11:01:04;;;;;;;26.67;3.25;;;;;;;22.08;100.00;101460.28;4956507;28;20046;-92
2023/09/28 11:03:31;;;;;;;21.40;2.47;;;;;;;22.03;100.00;101468.34;4960393;28;20489;-92
2023/09/28 11:05:59;;;;;;;22.20;2.70;;;;;;;21.51;100.00;101461.38;4938232;29;20027;-91
2023/09/28 11:08:25;;;;;;;28.63;3.03;;;;;;;21.82;100.00;101460.59;4938875;29;20165;-92
2023/09/28 11:10:55;;;;;;;23.35;3.25;;;;;;;21.50;100.00;101459.66;4937428;28;20059;-91
2023/09/28 11:13:21;;;;;;;19.60;3.60;;;;;;;21.48;100.00;101467.34;4959046;28;20074;-92